sensor_id;sensor_type;location;lat;lon;timestamp;temperature;humidity
7564;DHT22;3823;53.586;10.040;2022-11-20T00:01:41;3.80;1.00
7564;DHT22;3823;53.586;10.040;2022-11-20T00:04:08;3.80;1.00
7564;DHT22;3823;53.586;10.040;2022-11-20T00:06:33;3.80;1.00
7564;DHT22;3823;53.586;10.040;2022-11-20T00:09:01;3.80;1.00
7564;DHT22;3823;53.586;10.040;2022-11-20T00:11:28;3.80;1.00
7564;DHT22;3823;53.586;10.040;2022-11-20T00:13:56;3.80;1.00
7564;DHT22;3823;53.586;10.040;2022-11-20T00:16:26;3.90;1.00
7564;DHT22;3823;53.586;10.040;2022-11-20T00:18:53;4.00;1.00
7564;DHT22;3823;53.586;10.040;2022-11-20T00:21:25;3.90;1.00
7564;DHT22;3823;53.586;10.040;2022-11-20T00:23:52;3.90;1.00
7564;DHT22;3823;53.586;10.040;2022-11-20T00:26:19;3.80;1.00
7564;DHT22;3823;53.586;10.040;2022-11-20T00:28:56;3.80;1.00
7564;DHT22;3823;53.586;10.040;2022-11-20T00:31:22;3.70;1.00
7564;DHT22;3823;53.586;10.040;2022-11-20T00:33:48;3.70;1.00
7564;DHT22;3823;53.586;10.040;2022-11-20T00:36:19;3.70;1.00
7564;DHT22;3823;53.586;10.040;2022-11-20T00:38:45;3.70;1.00
7564;DHT22;3823;53.586;10.040;2022-11-20T00:41:13;3.70;1.00
7564;DHT22;3823;53.586;10.040;2022-11-20T00:43:40;3.70;1.00
7564;DHT22;3823;53.586;10.040;2022-11-20T00:46:12;3.70;1.00
7564;DHT22;3823;53.586;10.040;2022-11-20T00:48:38;3.70;1.00
7564;DHT22;3823;53.586;10.040;2022-11-20T00:51:04;3.60;1.00
7564;DHT22;3823;53.586;10.040;2022-11-20T00:53:29;3.60;1.00
7564;DHT22;3823;53.586;10.040;2022-11-20T00:56:00;3.60;1.00
7564;DHT22;3823;53.586;10.040;2022-11-20T00:58:33;3.60;1.00
7564;DHT22;3823;53.586;10.040;2022-11-20T01:01:08;3.60;1.00
7564;DHT22;3823;53.586;10.040;2022-11-20T01:03:35;3.60;1.00
7564;DHT22;3823;53.586;10.040;2022-11-20T01:06:13;3.60;1.00
7564;DHT22;3823;53.586;10.040;2022-11-20T01:08:39;3.60;1.00
7564;DHT22;3823;53.586;10.040;2022-11-20T01:11:10;3.50;1.00
7564;DHT22;3823;53.586;10.040;2022-11-20T01:13:37;3.60;1.00
7564;DHT22;3823;53.586;10.040;2022-11-20T01:16:24;3.50;1.00
7564;DHT22;3823;53.586;10.040;2022-11-20T01:18:52;3.50;1.00
7564;DHT22;3823;53.586;10.040;2022-11-20T01:21:30;3.50;1.00
7564;DHT22;3823;53.586;10.040;2022-11-20T01:23:56;3.50;1.00
7564;DHT22;3823;53.586;10.040;2022-11-20T01:26:24;3.50;1.00
7564;DHT22;3823;53.586;10.040;2022-11-20T01:28:50;3.60;1.00
7564;DHT22;3823;53.586;10.040;2022-11-20T01:31:27;3.60;1.00
7564;DHT22;3823;53.586;10.040;2022-11-20T01:33:56;3.60;1.00
7564;DHT22;3823;53.586;10.040;2022-11-20T01:36:23;3.50;1.00
7564;DHT22;3823;53.586;10.040;2022-11-20T01:39:00;3.50;1.00
7564;DHT22;3823;53.586;10.040;2022-11-20T01:41:28;3.60;1.00
7564;DHT22;3823;53.586;10.040;2022-11-20T01:44:15;3.60;1.00
7564;DHT22;3823;53.586;10.040;2022-11-20T01:46:59;3.50;1.00
7564;DHT22;3823;53.586;10.040;2022-11-20T01:49:37;3.40;1.00
7564;DHT22;3823;53.586;10.040;2022-11-20T01:52:20;3.40;1.00
7564;DHT22;3823;53.586;10.040;2022-11-20T01:54:51;3.40;1.00
7564;DHT22;3823;53.586;10.040;2022-11-20T01:57:19;3.40;1.00
7564;DHT22;3823;53.586;10.040;2022-11-20T01:59:55;3.50;1.00
7564;DHT22;3823;53.586;10.040;2022-11-20T02:02:22;3.50;3.40
7564;DHT22;3823;53.586;10.040;2022-11-20T02:04:49;3.50;1.00
7564;DHT22;3823;53.586;10.040;2022-11-20T02:07:17;3.50;1.00
7564;DHT22;3823;53.586;10.040;2022-11-20T02:09:43;3.50;1.00
7564;DHT22;3823;53.586;10.040;2022-11-20T02:12:08;3.60;1.40
7564;DHT22;3823;53.586;10.040;2022-11-20T02:14:54;3.60;1.00
7564;DHT22;3823;53.586;10.040;2022-11-20T02:17:19;3.60;1.00
7564;DHT22;3823;53.586;10.040;2022-11-20T02:19:46;3.50;1.00
7564;DHT22;3823;53.586;10.040;2022-11-20T02:22:19;3.60;1.00
7564;DHT22;3823;53.586;10.040;2022-11-20T02:24:47;3.50;1.00
7564;DHT22;3823;53.586;10.040;2022-11-20T02:27:17;3.40;1.00
7564;DHT22;3823;53.586;10.040;2022-11-20T02:32:41;3.40;3.60
7564;DHT22;3823;53.586;10.040;2022-11-20T02:37:54;3.50;4.60
7564;DHT22;3823;53.586;10.040;2022-11-20T02:40:21;3.40;1.00
7564;DHT22;3823;53.586;10.040;2022-11-20T02:42:47;3.40;2.50
7564;DHT22;3823;53.586;10.040;2022-11-20T02:45:12;3.40;1.00
7564;DHT22;3823;53.586;10.040;2022-11-20T02:47:38;3.40;1.00
7564;DHT22;3823;53.586;10.040;2022-11-20T02:50:05;3.50;1.00
7564;DHT22;3823;53.586;10.040;2022-11-20T02:52:31;3.50;1.00
7564;DHT22;3823;53.586;10.040;2022-11-20T02:54:56;3.50;1.00
7564;DHT22;3823;53.586;10.040;2022-11-20T02:57:22;3.40;1.00
7564;DHT22;3823;53.586;10.040;2022-11-20T02:59:47;3.40;1.00
7564;DHT22;3823;53.586;10.040;2022-11-20T03:02:13;3.40;1.00
7564;DHT22;3823;53.586;10.040;2022-11-20T03:04:38;3.40;1.00
7564;DHT22;3823;53.586;10.040;2022-11-20T03:07:04;3.40;1.00
7564;DHT22;3823;53.586;10.040;2022-11-20T03:09:30;3.40;1.00
7564;DHT22;3823;53.586;10.040;2022-11-20T03:11:56;3.40;1.00
7564;DHT22;3823;53.586;10.040;2022-11-20T03:14:21;3.40;1.00
7564;DHT22;3823;53.586;10.040;2022-11-20T03:16:46;3.40;1.00
7564;DHT22;3823;53.586;10.040;2022-11-20T03:19:12;3.40;1.00
7564;DHT22;3823;53.586;10.040;2022-11-20T03:21:38;3.40;1.00
7564;DHT22;3823;53.586;10.040;2022-11-20T03:24:04;3.40;1.00
7564;DHT22;3823;53.586;10.040;2022-11-20T03:26:29;3.40;1.00
7564;DHT22;3823;53.586;10.040;2022-11-20T03:29:00;3.40;1.00
7564;DHT22;3823;53.586;10.040;2022-11-20T03:31:31;3.40;1.00
7564;DHT22;3823;53.586;10.040;2022-11-20T03:33:57;3.50;1.00
7564;DHT22;3823;53.586;10.040;2022-11-20T03:36:24;3.40;1.00
7564;DHT22;3823;53.586;10.040;2022-11-20T03:38:50;3.40;1.00
7564;DHT22;3823;53.586;10.040;2022-11-20T03:41:24;3.40;1.00
7564;DHT22;3823;53.586;10.040;2022-11-20T03:43:52;3.40;1.00
7564;DHT22;3823;53.586;10.040;2022-11-20T03:46:18;3.40;1.00
7564;DHT22;3823;53.586;10.040;2022-11-20T03:48:43;3.40;1.00
7564;DHT22;3823;53.586;10.040;2022-11-20T03:51:15;3.40;1.00
7564;DHT22;3823;53.586;10.040;2022-11-20T03:53:43;3.50;1.00
7564;DHT22;3823;53.586;10.040;2022-11-20T03:56:10;3.40;1.00
7564;DHT22;3823;53.586;10.040;2022-11-20T03:58:38;3.40;1.00
7564;DHT22;3823;53.586;10.040;2022-11-20T04:03:34;3.40;1.00
7564;DHT22;3823;53.586;10.040;2022-11-20T04:06:20;3.30;1.00
7564;DHT22;3823;53.586;10.040;2022-11-20T04:08:46;3.30;1.00
7564;DHT22;3823;53.586;10.040;2022-11-20T04:11:17;3.30;1.00
7564;DHT22;3823;53.586;10.040;2022-11-20T04:13:47;3.30;1.00
7564;DHT22;3823;53.586;10.040;2022-11-20T04:16:13;3.30;1.00
7564;DHT22;3823;53.586;10.040;2022-11-20T04:18:38;3.30;1.00
7564;DHT22;3823;53.586;10.040;2022-11-20T04:21:04;3.30;1.00
7564;DHT22;3823;53.586;10.040;2022-11-20T04:23:30;3.30;1.00
7564;DHT22;3823;53.586;10.040;2022-11-20T04:26:04;3.30;1.00
7564;DHT22;3823;53.586;10.040;2022-11-20T04:28:30;3.40;1.00
7564;DHT22;3823;53.586;10.040;2022-11-20T04:31:12;3.40;1.00
7564;DHT22;3823;53.586;10.040;2022-11-20T04:33:39;3.30;1.00
7564;DHT22;3823;53.586;10.040;2022-11-20T04:36:15;3.30;1.00
7564;DHT22;3823;53.586;10.040;2022-11-20T04:38:41;3.30;1.00
7564;DHT22;3823;53.586;10.040;2022-11-20T04:41:09;3.30;4.40
7564;DHT22;3823;53.586;10.040;2022-11-20T04:43:36;3.30;1.00
7564;DHT22;3823;53.586;10.040;2022-11-20T04:46:01;3.40;1.00
7564;DHT22;3823;53.586;10.040;2022-11-20T04:48:28;3.30;1.00
7564;DHT22;3823;53.586;10.040;2022-11-20T04:50:54;3.30;4.30
7564;DHT22;3823;53.586;10.040;2022-11-20T04:53:20;3.30;4.40
7564;DHT22;3823;53.586;10.040;2022-11-20T04:55:47;3.20;10.70
7564;DHT22;3823;53.586;10.040;2022-11-20T04:58:12;3.20;15.80
7564;DHT22;3823;53.586;10.040;2022-11-20T05:00:39;3.20;16.70
7564;DHT22;3823;53.586;10.040;2022-11-20T05:03:05;3.30;10.80
7564;DHT22;3823;53.586;10.040;2022-11-20T05:05:31;3.20;11.60
7564;DHT22;3823;53.586;10.040;2022-11-20T05:07:58;3.30;8.00
7564;DHT22;3823;53.586;10.040;2022-11-20T05:10:25;3.30;4.00
7564;DHT22;3823;53.586;10.040;2022-11-20T05:12:51;3.30;1.30
7564;DHT22;3823;53.586;10.040;2022-11-20T05:15:16;3.20;2.10
7564;DHT22;3823;53.586;10.040;2022-11-20T05:17:50;3.20;10.90
7564;DHT22;3823;53.586;10.040;2022-11-20T05:20:16;3.20;10.50
7564;DHT22;3823;53.586;10.040;2022-11-20T05:22:43;3.30;1.00
7564;DHT22;3823;53.586;10.040;2022-11-20T05:25:09;3.30;2.50
7564;DHT22;3823;53.586;10.040;2022-11-20T05:27:35;3.30;2.40
7564;DHT22;3823;53.586;10.040;2022-11-20T05:30:00;3.30;1.70
7564;DHT22;3823;53.586;10.040;2022-11-20T05:32:26;3.20;7.20
7564;DHT22;3823;53.586;10.040;2022-11-20T05:34:52;3.20;13.50
7564;DHT22;3823;53.586;10.040;2022-11-20T05:37:18;3.30;10.30
7564;DHT22;3823;53.586;10.040;2022-11-20T05:39:43;3.30;9.50
7564;DHT22;3823;53.586;10.040;2022-11-20T05:42:09;3.30;3.40
7564;DHT22;3823;53.586;10.040;2022-11-20T05:44:53;3.20;10.10
7564;DHT22;3823;53.586;10.040;2022-11-20T05:47:18;3.20;14.70
7564;DHT22;3823;53.586;10.040;2022-11-20T05:49:44;3.20;10.70
7564;DHT22;3823;53.586;10.040;2022-11-20T05:52:09;3.10;16.30
7564;DHT22;3823;53.586;10.040;2022-11-20T05:54:35;3.10;18.20
7564;DHT22;3823;53.586;10.040;2022-11-20T05:57:00;3.10;23.30
7564;DHT22;3823;53.586;10.040;2022-11-20T05:59:26;3.10;22.40
7564;DHT22;3823;53.586;10.040;2022-11-20T06:01:51;3.10;23.30
7564;DHT22;3823;53.586;10.040;2022-11-20T06:04:17;3.10;26.50
7564;DHT22;3823;53.586;10.040;2022-11-20T06:06:42;3.10;20.00
7564;DHT22;3823;53.586;10.040;2022-11-20T06:09:08;3.10;18.50
7564;DHT22;3823;53.586;10.040;2022-11-20T06:11:33;3.10;17.30
7564;DHT22;3823;53.586;10.040;2022-11-20T06:13:59;3.10;22.00
7564;DHT22;3823;53.586;10.040;2022-11-20T06:16:24;3.10;13.90
7564;DHT22;3823;53.586;10.040;2022-11-20T06:18:50;3.10;15.20
7564;DHT22;3823;53.586;10.040;2022-11-20T06:21:20;3.10;19.40
7564;DHT22;3823;53.586;10.040;2022-11-20T06:23:47;3.10;18.40
7564;DHT22;3823;53.586;10.040;2022-11-20T06:26:24;3.10;19.00
7564;DHT22;3823;53.586;10.040;2022-11-20T06:28:51;3.20;10.10
7564;DHT22;3823;53.586;10.040;2022-11-20T06:31:19;3.20;14.40
7564;DHT22;3823;53.586;10.040;2022-11-20T06:33:46;3.20;10.50
7564;DHT22;3823;53.586;10.040;2022-11-20T06:36:14;3.20;12.40
7564;DHT22;3823;53.586;10.040;2022-11-20T06:38:40;3.20;14.00
7564;DHT22;3823;53.586;10.040;2022-11-20T06:41:09;3.20;15.50
7564;DHT22;3823;53.586;10.040;2022-11-20T06:43:36;3.20;8.40
7564;DHT22;3823;53.586;10.040;2022-11-20T06:46:01;3.20;10.50
7564;DHT22;3823;53.586;10.040;2022-11-20T06:48:27;3.10;13.30
7564;DHT22;3823;53.586;10.040;2022-11-20T06:50:53;3.10;14.40
7564;DHT22;3823;53.586;10.040;2022-11-20T06:53:19;3.00;23.80
7564;DHT22;3823;53.586;10.040;2022-11-20T06:55:46;3.00;28.80
7564;DHT22;3823;53.586;10.040;2022-11-20T06:58:13;3.00;23.40
7564;DHT22;3823;53.586;10.040;2022-11-20T07:00:39;3.00;24.60
7564;DHT22;3823;53.586;10.040;2022-11-20T07:03:05;3.00;25.80
7564;DHT22;3823;53.586;10.040;2022-11-20T07:05:32;3.00;19.60
7564;DHT22;3823;53.586;10.040;2022-11-20T07:07:57;3.00;15.20
7564;DHT22;3823;53.586;10.040;2022-11-20T07:10:24;3.00;19.50
7564;DHT22;3823;53.586;10.040;2022-11-20T07:12:53;3.00;13.00
7564;DHT22;3823;53.586;10.040;2022-11-20T07:15:20;3.00;14.70
7564;DHT22;3823;53.586;10.040;2022-11-20T07:17:46;2.90;19.40
7564;DHT22;3823;53.586;10.040;2022-11-20T07:20:12;2.90;23.60
7564;DHT22;3823;53.586;10.040;2022-11-20T07:22:38;2.90;23.30
7564;DHT22;3823;53.586;10.040;2022-11-20T07:25:05;2.90;21.20
7564;DHT22;3823;53.586;10.040;2022-11-20T07:27:31;2.90;24.50
7564;DHT22;3823;53.586;10.040;2022-11-20T07:29:56;2.90;20.80
7564;DHT22;3823;53.586;10.040;2022-11-20T07:32:22;2.80;17.70
7564;DHT22;3823;53.586;10.040;2022-11-20T07:34:48;2.80;32.80
7564;DHT22;3823;53.586;10.040;2022-11-20T07:37:14;2.80;39.80
7564;DHT22;3823;53.586;10.040;2022-11-20T07:39:40;2.80;27.70
7564;DHT22;3823;53.586;10.040;2022-11-20T07:42:06;2.90;27.30
7564;DHT22;3823;53.586;10.040;2022-11-20T07:44:32;2.90;29.70
7564;DHT22;3823;53.586;10.040;2022-11-20T07:46:57;2.90;22.70
7564;DHT22;3823;53.586;10.040;2022-11-20T07:49:23;2.90;28.10
7564;DHT22;3823;53.586;10.040;2022-11-20T07:51:52;2.90;27.50
7564;DHT22;3823;53.586;10.040;2022-11-20T07:54:20;2.80;31.70
7564;DHT22;3823;53.586;10.040;2022-11-20T07:56:47;2.90;34.50
7564;DHT22;3823;53.586;10.040;2022-11-20T07:59:13;2.90;27.90
7564;DHT22;3823;53.586;10.040;2022-11-20T08:01:39;2.90;25.40
7564;DHT22;3823;53.586;10.040;2022-11-20T08:04:04;2.80;19.90
7564;DHT22;3823;53.586;10.040;2022-11-20T08:06:30;2.80;21.40
7564;DHT22;3823;53.586;10.040;2022-11-20T08:08:56;2.90;25.00
7564;DHT22;3823;53.586;10.040;2022-11-20T08:11:21;2.80;26.50
7564;DHT22;3823;53.586;10.040;2022-11-20T08:14:05;2.90;23.10
7564;DHT22;3823;53.586;10.040;2022-11-20T08:16:44;3.00;18.60
7564;DHT22;3823;53.586;10.040;2022-11-20T08:19:10;3.00;11.20
7564;DHT22;3823;53.586;10.040;2022-11-20T08:21:36;3.10;2.20
7564;DHT22;3823;53.586;10.040;2022-11-20T08:24:02;3.10;1.00
7564;DHT22;3823;53.586;10.040;2022-11-20T08:26:27;3.10;1.00
7564;DHT22;3823;53.586;10.040;2022-11-20T08:28:54;3.10;1.00
7564;DHT22;3823;53.586;10.040;2022-11-20T08:31:20;3.10;1.30
7564;DHT22;3823;53.586;10.040;2022-11-20T08:33:46;3.10;3.70
7564;DHT22;3823;53.586;10.040;2022-11-20T08:36:12;3.20;1.00
7564;DHT22;3823;53.586;10.040;2022-11-20T08:38:37;3.20;1.00
7564;DHT22;3823;53.586;10.040;2022-11-20T08:41:04;3.20;1.00
7564;DHT22;3823;53.586;10.040;2022-11-20T08:44:04;3.20;1.00
7564;DHT22;3823;53.586;10.040;2022-11-20T08:46:34;3.20;1.00
7564;DHT22;3823;53.586;10.040;2022-11-20T08:49:02;3.30;1.00
7564;DHT22;3823;53.586;10.040;2022-11-20T08:51:28;3.30;1.00
7564;DHT22;3823;53.586;10.040;2022-11-20T08:53:53;3.30;1.00
7564;DHT22;3823;53.586;10.040;2022-11-20T08:56:19;3.40;1.00
7564;DHT22;3823;53.586;10.040;2022-11-20T08:58:45;3.40;1.00
7564;DHT22;3823;53.586;10.040;2022-11-20T09:01:10;3.50;1.00
7564;DHT22;3823;53.586;10.040;2022-11-20T09:03:36;3.50;1.00
7564;DHT22;3823;53.586;10.040;2022-11-20T09:06:04;3.50;1.00
7564;DHT22;3823;53.586;10.040;2022-11-20T09:08:30;3.50;1.00
7564;DHT22;3823;53.586;10.040;2022-11-20T09:10:56;3.50;1.00
7564;DHT22;3823;53.586;10.040;2022-11-20T09:13:22;3.50;1.00
7564;DHT22;3823;53.586;10.040;2022-11-20T09:15:59;3.40;5.40
7564;DHT22;3823;53.586;10.040;2022-11-20T09:18:27;3.30;19.70
7564;DHT22;3823;53.586;10.040;2022-11-20T09:21:00;3.20;35.20
7564;DHT22;3823;53.586;10.040;2022-11-20T09:23:27;3.10;54.80
7564;DHT22;3823;53.586;10.040;2022-11-20T09:25:53;3.10;64.30
7564;DHT22;3823;53.586;10.040;2022-11-20T09:28:21;3.00;70.90
7564;DHT22;3823;53.586;10.040;2022-11-20T09:30:46;3.00;80.70
7564;DHT22;3823;53.586;10.040;2022-11-20T09:33:12;3.00;82.70
7564;DHT22;3823;53.586;10.040;2022-11-20T09:35:38;3.00;92.70
7564;DHT22;3823;53.586;10.040;2022-11-20T09:38:06;3.00;91.50
7564;DHT22;3823;53.586;10.040;2022-11-20T09:40:34;3.00;94.60
7564;DHT22;3823;53.586;10.040;2022-11-20T09:46:05;3.10;96.10
7564;DHT22;3823;53.586;10.040;2022-11-20T09:52:18;3.20;80.60
7564;DHT22;3823;53.586;10.040;2022-11-20T09:54:34;3.30;89.60
7564;DHT22;3823;53.586;10.040;2022-11-20T09:57:03;3.30;88.00
7564;DHT22;3823;53.586;10.040;2022-11-20T09:59:35;3.40;78.20
7564;DHT22;3823;53.586;10.040;2022-11-20T10:02:03;3.40;54.00
7564;DHT22;3823;53.586;10.040;2022-11-20T10:04:43;3.40;74.80
7564;DHT22;3823;53.586;10.040;2022-11-20T10:07:39;3.30;63.60
7564;DHT22;3823;53.586;10.040;2022-11-20T10:10:19;3.30;75.10
7564;DHT22;3823;53.586;10.040;2022-11-20T10:13:01;3.30;65.40
7564;DHT22;3823;53.586;10.040;2022-11-20T10:21:51;3.60;40.00
7564;DHT22;3823;53.586;10.040;2022-11-20T10:30:08;3.60;75.60
7564;DHT22;3823;53.586;10.040;2022-11-20T10:32:39;3.60;51.10
7564;DHT22;3823;53.586;10.040;2022-11-20T10:35:32;3.60;49.70
7564;DHT22;3823;53.586;10.040;2022-11-20T10:38:02;3.60;25.20
7564;DHT22;3823;53.586;10.040;2022-11-20T10:40:34;3.50;18.40
7564;DHT22;3823;53.586;10.040;2022-11-20T10:46:03;3.50;31.80
7564;DHT22;3823;53.586;10.040;2022-11-20T10:48:31;3.60;31.50
7564;DHT22;3823;53.586;10.040;2022-11-20T10:53:44;3.60;40.20
7564;DHT22;3823;53.586;10.040;2022-11-20T10:56:18;3.70;34.50
7564;DHT22;3823;53.586;10.040;2022-11-20T11:01:48;3.80;1.00
7564;DHT22;3823;53.586;10.040;2022-11-20T11:04:33;3.80;1.00
7564;DHT22;3823;53.586;10.040;2022-11-20T11:07:27;3.80;15.40
7564;DHT22;3823;53.586;10.040;2022-11-20T11:09:55;3.80;13.10
7564;DHT22;3823;53.586;10.040;2022-11-20T11:12:26;3.70;20.10
7564;DHT22;3823;53.586;10.040;2022-11-20T11:14:54;3.70;14.00
7564;DHT22;3823;53.586;10.040;2022-11-20T11:17:29;3.70;17.70
7564;DHT22;3823;53.586;10.040;2022-11-20T11:19:59;3.70;18.20
7564;DHT22;3823;53.586;10.040;2022-11-20T11:22:29;3.70;2.30
7564;DHT22;3823;53.586;10.040;2022-11-20T11:24:55;3.70;1.00
7564;DHT22;3823;53.586;10.040;2022-11-20T11:27:20;3.70;4.40
7564;DHT22;3823;53.586;10.040;2022-11-20T11:29:46;3.70;12.70
7564;DHT22;3823;53.586;10.040;2022-11-20T11:32:20;3.70;11.10
7564;DHT22;3823;53.586;10.040;2022-11-20T11:35:11;3.60;13.40
7564;DHT22;3823;53.586;10.040;2022-11-20T11:37:45;3.60;9.80
7564;DHT22;3823;53.586;10.040;2022-11-20T11:40:12;3.60;12.30
7564;DHT22;3823;53.586;10.040;2022-11-20T11:42:57;3.60;1.00
7564;DHT22;3823;53.586;10.040;2022-11-20T11:45:24;3.60;1.70
7564;DHT22;3823;53.586;10.040;2022-11-20T11:47:51;3.60;4.50
7564;DHT22;3823;53.586;10.040;2022-11-20T11:50:22;3.60;1.00
7564;DHT22;3823;53.586;10.040;2022-11-20T11:53:12;3.60;1.00
7564;DHT22;3823;53.586;10.040;2022-11-20T11:58:39;3.60;4.10
7564;DHT22;3823;53.586;10.040;2022-11-20T12:01:17;3.60;1.00
7564;DHT22;3823;53.586;10.040;2022-11-20T12:03:59;3.60;1.00
7564;DHT22;3823;53.586;10.040;2022-11-20T12:06:28;3.70;1.00
7564;DHT22;3823;53.586;10.040;2022-11-20T12:09:01;3.80;1.00
7564;DHT22;3823;53.586;10.040;2022-11-20T12:11:52;3.80;1.00
7564;DHT22;3823;53.586;10.040;2022-11-20T12:14:34;3.80;1.00
7564;DHT22;3823;53.586;10.040;2022-11-20T12:17:01;3.80;1.00
7564;DHT22;3823;53.586;10.040;2022-11-20T12:19:30;3.80;1.00
7564;DHT22;3823;53.586;10.040;2022-11-20T12:22:30;3.90;1.00
7564;DHT22;3823;53.586;10.040;2022-11-20T12:28:03;3.80;1.00
7564;DHT22;3823;53.586;10.040;2022-11-20T12:30:33;3.90;1.00
7564;DHT22;3823;53.586;10.040;2022-11-20T12:56:28;4.10;1.00
7564;DHT22;3823;53.586;10.040;2022-11-20T13:01:39;4.10;1.00
7564;DHT22;3823;53.586;10.040;2022-11-20T13:04:26;4.00;1.00
7564;DHT22;3823;53.586;10.040;2022-11-20T13:06:54;4.10;1.00
7564;DHT22;3823;53.586;10.040;2022-11-20T13:09:20;4.10;1.00
7564;DHT22;3823;53.586;10.040;2022-11-20T13:14:33;4.10;1.00
7564;DHT22;3823;53.586;10.040;2022-11-20T13:17:11;4.10;1.00
7564;DHT22;3823;53.586;10.040;2022-11-20T13:19:39;4.10;1.00
7564;DHT22;3823;53.586;10.040;2022-11-20T13:22:05;4.10;1.00
7564;DHT22;3823;53.586;10.040;2022-11-20T13:24:31;4.20;1.00
7564;DHT22;3823;53.586;10.040;2022-11-20T13:29:30;4.20;1.00
7564;DHT22;3823;53.586;10.040;2022-11-20T13:32:14;4.10;1.00
7564;DHT22;3823;53.586;10.040;2022-11-20T13:34:51;4.20;1.00
7564;DHT22;3823;53.586;10.040;2022-11-20T13:37:35;4.20;1.00
7564;DHT22;3823;53.586;10.040;2022-11-20T13:40:11;4.20;1.00
7564;DHT22;3823;53.586;10.040;2022-11-20T13:42:45;4.20;1.00
7564;DHT22;3823;53.586;10.040;2022-11-20T13:45:29;4.20;1.00
7564;DHT22;3823;53.586;10.040;2022-11-20T13:47:56;4.20;1.00
7564;DHT22;3823;53.586;10.040;2022-11-20T13:53:10;4.20;1.00
7564;DHT22;3823;53.586;10.040;2022-11-20T13:55:49;4.20;1.00
7564;DHT22;3823;53.586;10.040;2022-11-20T13:58:40;4.20;1.00
7564;DHT22;3823;53.586;10.040;2022-11-20T14:01:19;4.20;1.00
7564;DHT22;3823;53.586;10.040;2022-11-20T14:03:46;4.20;1.00
7564;DHT22;3823;53.586;10.040;2022-11-20T14:06:29;4.20;1.00
7564;DHT22;3823;53.586;10.040;2022-11-20T14:08:55;4.20;1.00
7564;DHT22;3823;53.586;10.040;2022-11-20T14:11:23;4.20;1.00
7564;DHT22;3823;53.586;10.040;2022-11-20T14:14:04;4.20;1.00
7564;DHT22;3823;53.586;10.040;2022-11-20T14:16:36;4.20;1.00
7564;DHT22;3823;53.586;10.040;2022-11-20T14:19:25;4.20;1.00
7564;DHT22;3823;53.586;10.040;2022-11-20T14:22:07;4.20;1.00
7564;DHT22;3823;53.586;10.040;2022-11-20T14:24:33;4.10;1.00
7564;DHT22;3823;53.586;10.040;2022-11-20T14:26:59;4.10;1.00
7564;DHT22;3823;53.586;10.040;2022-11-20T14:29:29;4.00;1.00
7564;DHT22;3823;53.586;10.040;2022-11-20T14:31:58;4.00;1.00
7564;DHT22;3823;53.586;10.040;2022-11-20T14:34:29;4.00;1.00
7564;DHT22;3823;53.586;10.040;2022-11-20T14:37:02;4.00;1.00
7564;DHT22;3823;53.586;10.040;2022-11-20T14:39:34;4.00;1.00
7564;DHT22;3823;53.586;10.040;2022-11-20T14:42:00;4.00;1.00
7564;DHT22;3823;53.586;10.040;2022-11-20T14:44:33;4.00;1.00
7564;DHT22;3823;53.586;10.040;2022-11-20T14:47:00;4.00;1.00
7564;DHT22;3823;53.586;10.040;2022-11-20T14:49:29;3.90;1.00
7564;DHT22;3823;53.586;10.040;2022-11-20T14:52:11;3.90;1.00
7564;DHT22;3823;53.586;10.040;2022-11-20T14:54:51;3.90;1.00
7564;DHT22;3823;53.586;10.040;2022-11-20T14:57:31;3.90;1.00
7564;DHT22;3823;53.586;10.040;2022-11-20T15:02:41;3.90;1.00
7564;DHT22;3823;53.586;10.040;2022-11-20T15:05:07;3.80;1.00
7564;DHT22;3823;53.586;10.040;2022-11-20T15:07:36;3.80;1.00
7564;DHT22;3823;53.586;10.040;2022-11-20T15:10:04;3.80;1.00
7564;DHT22;3823;53.586;10.040;2022-11-20T15:12:32;3.80;1.00
7564;DHT22;3823;53.586;10.040;2022-11-20T15:14:58;3.80;1.00
7564;DHT22;3823;53.586;10.040;2022-11-20T15:17:24;3.80;1.00
7564;DHT22;3823;53.586;10.040;2022-11-20T15:19:49;3.80;1.00
7564;DHT22;3823;53.586;10.040;2022-11-20T15:22:15;3.80;1.00
7564;DHT22;3823;53.586;10.040;2022-11-20T15:24:44;3.80;1.00
7564;DHT22;3823;53.586;10.040;2022-11-20T15:27:10;3.80;1.00
7564;DHT22;3823;53.586;10.040;2022-11-20T15:29:36;3.70;1.00
7564;DHT22;3823;53.586;10.040;2022-11-20T15:32:02;3.70;1.00
7564;DHT22;3823;53.586;10.040;2022-11-20T15:34:27;3.70;1.00
7564;DHT22;3823;53.586;10.040;2022-11-20T15:36:53;3.70;1.00
7564;DHT22;3823;53.586;10.040;2022-11-20T15:39:20;3.70;1.00
7564;DHT22;3823;53.586;10.040;2022-11-20T15:41:46;3.70;1.00
7564;DHT22;3823;53.586;10.040;2022-11-20T15:44:12;3.70;1.00
7564;DHT22;3823;53.586;10.040;2022-11-20T15:46:39;3.70;1.00
7564;DHT22;3823;53.586;10.040;2022-11-20T15:49:13;3.70;1.00
7564;DHT22;3823;53.586;10.040;2022-11-20T15:51:42;3.60;1.00
7564;DHT22;3823;53.586;10.040;2022-11-20T15:54:17;3.70;1.00
7564;DHT22;3823;53.586;10.040;2022-11-20T15:56:48;3.70;1.00
7564;DHT22;3823;53.586;10.040;2022-11-20T15:59:14;3.70;1.00
7564;DHT22;3823;53.586;10.040;2022-11-20T16:01:41;3.70;1.00
7564;DHT22;3823;53.586;10.040;2022-11-20T16:04:16;3.70;1.00
7564;DHT22;3823;53.586;10.040;2022-11-20T16:06:42;3.80;1.00
7564;DHT22;3823;53.586;10.040;2022-11-20T16:09:07;3.80;1.00
7564;DHT22;3823;53.586;10.040;2022-11-20T16:11:33;3.80;1.00
7564;DHT22;3823;53.586;10.040;2022-11-20T16:14:02;3.80;1.00
7564;DHT22;3823;53.586;10.040;2022-11-20T16:16:50;3.80;1.00
7564;DHT22;3823;53.586;10.040;2022-11-20T16:19:16;3.80;1.00
7564;DHT22;3823;53.586;10.040;2022-11-20T16:21:43;3.70;1.00
7564;DHT22;3823;53.586;10.040;2022-11-20T16:24:11;3.80;1.00
7564;DHT22;3823;53.586;10.040;2022-11-20T16:26:38;3.80;1.00
7564;DHT22;3823;53.586;10.040;2022-11-20T16:29:05;3.80;1.00
7564;DHT22;3823;53.586;10.040;2022-11-20T16:31:32;3.80;1.00
7564;DHT22;3823;53.586;10.040;2022-11-20T16:34:00;3.80;1.00
7564;DHT22;3823;53.586;10.040;2022-11-20T16:36:27;3.80;1.00
7564;DHT22;3823;53.586;10.040;2022-11-20T16:38:55;3.80;1.00
7564;DHT22;3823;53.586;10.040;2022-11-20T16:41:21;3.80;1.00
7564;DHT22;3823;53.586;10.040;2022-11-20T16:43:48;3.80;1.00
7564;DHT22;3823;53.586;10.040;2022-11-20T16:46:15;3.80;1.00
7564;DHT22;3823;53.586;10.040;2022-11-20T16:48:41;3.70;1.00
7564;DHT22;3823;53.586;10.040;2022-11-20T16:51:11;3.70;1.00
7564;DHT22;3823;53.586;10.040;2022-11-20T16:53:38;3.70;1.00
7564;DHT22;3823;53.586;10.040;2022-11-20T16:56:14;3.70;1.00
7564;DHT22;3823;53.586;10.040;2022-11-20T16:58:42;3.70;1.00
7564;DHT22;3823;53.586;10.040;2022-11-20T17:01:09;3.70;1.00
7564;DHT22;3823;53.586;10.040;2022-11-20T17:03:37;3.60;1.00
7564;DHT22;3823;53.586;10.040;2022-11-20T17:06:10;3.60;1.00
7564;DHT22;3823;53.586;10.040;2022-11-20T17:08:36;3.60;1.00
7564;DHT22;3823;53.586;10.040;2022-11-20T17:11:10;3.70;1.00
7564;DHT22;3823;53.586;10.040;2022-11-20T17:13:36;3.70;1.00
7564;DHT22;3823;53.586;10.040;2022-11-20T17:16:03;3.60;1.00
7564;DHT22;3823;53.586;10.040;2022-11-20T17:18:30;3.60;1.00
7564;DHT22;3823;53.586;10.040;2022-11-20T17:20:55;3.60;1.00
7564;DHT22;3823;53.586;10.040;2022-11-20T17:23:21;3.70;1.00
7564;DHT22;3823;53.586;10.040;2022-11-20T17:25:46;3.70;1.00
7564;DHT22;3823;53.586;10.040;2022-11-20T17:28:12;3.70;1.00
7564;DHT22;3823;53.586;10.040;2022-11-20T17:30:37;3.70;1.00
7564;DHT22;3823;53.586;10.040;2022-11-20T17:33:03;3.60;1.00
7564;DHT22;3823;53.586;10.040;2022-11-20T17:35:28;3.60;1.00
7564;DHT22;3823;53.586;10.040;2022-11-20T17:37:54;3.60;1.00
7564;DHT22;3823;53.586;10.040;2022-11-20T17:40:19;3.60;1.00
7564;DHT22;3823;53.586;10.040;2022-11-20T17:42:45;3.60;1.00
7564;DHT22;3823;53.586;10.040;2022-11-20T17:45:10;3.60;1.00